sensor_id;sensor_type;location;lat;lon;timestamp;P1;durP1;ratioP1;P2;durP2;ratioP2
20417;SDS011;10368;51.436;6.774;2023-04-10T00:00:35;8.27;;;7.43;;
20417;SDS011;10368;51.436;6.774;2023-04-10T00:03:03;7.80;;;7.00;;
20417;SDS011;10368;51.436;6.774;2023-04-10T00:05:31;10.30;;;7.27;;
20417;SDS011;10368;51.436;6.774;2023-04-10T00:07:58;7.53;;;6.73;;
20417;SDS011;10368;51.436;6.774;2023-04-10T00:10:25;8.90;;;6.87;;
20417;SDS011;10368;51.436;6.774;2023-04-10T00:12:54;7.80;;;6.67;;
20417;SDS011;10368;51.436;6.774;2023-04-10T00:15:21;8.27;;;7.47;;
20417;SDS011;10368;51.436;6.774;2023-04-10T00:17:48;7.60;;;6.70;;
20417;SDS011;10368;51.436;6.774;2023-04-10T00:20:21;8.27;;;7.43;;
20417;SDS011;10368;51.436;6.774;2023-04-10T00:22:48;8.67;;;7.83;;
20417;SDS011;10368;51.436;6.774;2023-04-10T00:25:15;7.87;;;6.77;;
20417;SDS011;10368;51.436;6.774;2023-04-10T00:27:42;7.87;;;7.07;;
20417;SDS011;10368;51.436;6.774;2023-04-10T00:30:09;7.90;;;7.10;;
20417;SDS011;10368;51.436;6.774;2023-04-10T00:32:36;7.87;;;7.07;;
20417;SDS011;10368;51.436;6.774;2023-04-10T00:35:04;10.23;;;7.67;;
20417;SDS011;10368;51.436;6.774;2023-04-10T00:37:31;8.30;;;7.50;;
20417;SDS011;10368;51.436;6.774;2023-04-10T00:39:58;8.63;;;7.80;;
20417;SDS011;10368;51.436;6.774;2023-04-10T00:42:25;8.10;;;6.97;;
20417;SDS011;10368;51.436;6.774;2023-04-10T00:44:52;8.33;;;6.97;;
20417;SDS011;10368;51.436;6.774;2023-04-10T00:47:19;9.17;;;6.77;;
20417;SDS011;10368;51.436;6.774;2023-04-10T00:49:47;8.00;;;7.00;;
20417;SDS011;10368;51.436;6.774;2023-04-10T00:52:14;7.97;;;7.13;;
20417;SDS011;10368;51.436;6.774;2023-04-10T00:54:41;8.60;;;7.80;;
20417;SDS011;10368;51.436;6.774;2023-04-10T00:57:08;7.83;;;7.13;;
20417;SDS011;10368;51.436;6.774;2023-04-10T00:59:35;7.60;;;6.90;;
20417;SDS011;10368;51.436;6.774;2023-04-10T01:02:02;9.13;;;7.30;;
20417;SDS011;10368;51.436;6.774;2023-04-10T01:04:30;7.87;;;7.07;;
20417;SDS011;10368;51.436;6.774;2023-04-10T01:07:42;8.53;;;7.63;;
20417;SDS011;10368;51.436;6.774;2023-04-10T01:15:14;8.97;;;8.07;;
20417;SDS011;10368;51.436;6.774;2023-04-10T01:20:37;8.40;;;7.50;;
20417;SDS011;10368;51.436;6.774;2023-04-10T01:30:53;7.87;;;7.07;;
20417;SDS011;10368;51.436;6.774;2023-04-10T01:33:28;10.37;;;8.50;;
20417;SDS011;10368;51.436;6.774;2023-04-10T01:36:02;8.73;;;7.50;;
20417;SDS011;10368;51.436;6.774;2023-04-10T01:38:31;8.10;;;7.27;;
20417;SDS011;10368;51.436;6.774;2023-04-10T01:40:59;8.67;;;7.77;;
20417;SDS011;10368;51.436;6.774;2023-04-10T01:43:27;8.80;;;7.90;;
20417;SDS011;10368;51.436;6.774;2023-04-10T01:45:56;9.50;;;7.63;;
20417;SDS011;10368;51.436;6.774;2023-04-10T01:48:26;9.13;;;8.23;;
20417;SDS011;10368;51.436;6.774;2023-04-10T01:50:53;9.03;;;7.63;;
20417;SDS011;10368;51.436;6.774;2023-04-10T01:53:22;10.37;;;8.10;;
20417;SDS011;10368;51.436;6.774;2023-04-10T01:55:50;8.83;;;7.77;;
20417;SDS011;10368;51.436;6.774;2023-04-10T01:58:18;8.80;;;7.90;;
20417;SDS011;10368;51.436;6.774;2023-04-10T02:00:45;9.00;;;8.10;;
20417;SDS011;10368;51.436;6.774;2023-04-10T02:03:12;8.97;;;8.07;;
20417;SDS011;10368;51.436;6.774;2023-04-10T02:06:10;8.73;;;7.83;;
20417;SDS011;10368;51.436;6.774;2023-04-10T02:08:47;9.53;;;8.27;;
20417;SDS011;10368;51.436;6.774;2023-04-10T02:13:55;8.33;;;7.47;;
20417;SDS011;10368;51.436;6.774;2023-04-10T02:16:26;7.93;;;7.13;;
20417;SDS011;10368;51.436;6.774;2023-04-10T02:18:56;8.27;;;7.47;;
20417;SDS011;10368;51.436;6.774;2023-04-10T02:21:25;8.57;;;7.67;;
20417;SDS011;10368;51.436;6.774;2023-04-10T02:23:52;8.20;;;7.40;;
20417;SDS011;10368;51.436;6.774;2023-04-10T02:26:21;8.27;;;7.37;;
20417;SDS011;10368;51.436;6.774;2023-04-10T02:28:48;9.90;;;8.53;;
20417;SDS011;10368;51.436;6.774;2023-04-10T02:31:15;9.00;;;8.10;;
20417;SDS011;10368;51.436;6.774;2023-04-10T02:33:42;8.83;;;7.33;;
20417;SDS011;10368;51.436;6.774;2023-04-10T02:36:09;7.77;;;6.93;;
20417;SDS011;10368;51.436;6.774;2023-04-10T02:38:36;10.37;;;8.13;;
20417;SDS011;10368;51.436;6.774;2023-04-10T02:41:04;9.30;;;7.73;;
20417;SDS011;10368;51.436;6.774;2023-04-10T02:43:31;8.73;;;7.77;;
20417;SDS011;10368;51.436;6.774;2023-04-10T02:45:57;9.77;;;8.27;;
20417;SDS011;10368;51.436;6.774;2023-04-10T02:48:25;8.60;;;7.70;;
20417;SDS011;10368;51.436;6.774;2023-04-10T02:50:58;9.23;;;7.73;;
20417;SDS011;10368;51.436;6.774;2023-04-10T02:53:25;9.33;;;8.07;;
20417;SDS011;10368;51.436;6.774;2023-04-10T02:55:52;8.93;;;8.00;;
20417;SDS011;10368;51.436;6.774;2023-04-10T02:58:20;8.20;;;7.40;;
20417;SDS011;10368;51.436;6.774;2023-04-10T03:00:50;8.67;;;7.83;;
20417;SDS011;10368;51.436;6.774;2023-04-10T03:03:17;8.53;;;7.63;;
20417;SDS011;10368;51.436;6.774;2023-04-10T03:05:45;8.10;;;7.30;;
20417;SDS011;10368;51.436;6.774;2023-04-10T03:08:15;8.40;;;7.60;;
20417;SDS011;10368;51.436;6.774;2023-04-10T03:10:44;8.83;;;7.93;;
20417;SDS011;10368;51.436;6.774;2023-04-10T03:13:14;8.93;;;7.60;;
20417;SDS011;10368;51.436;6.774;2023-04-10T03:15:41;10.03;;;8.23;;
20417;SDS011;10368;51.436;6.774;2023-04-10T03:18:08;9.17;;;8.20;;
20417;SDS011;10368;51.436;6.774;2023-04-10T03:20:36;9.70;;;8.37;;
20417;SDS011;10368;51.436;6.774;2023-04-10T03:23:05;8.87;;;7.97;;
20417;SDS011;10368;51.436;6.774;2023-04-10T03:25:33;11.83;;;8.93;;
20417;SDS011;10368;51.436;6.774;2023-04-10T03:28:00;7.23;;;6.53;;
20417;SDS011;10368;51.436;6.774;2023-04-10T03:30:27;9.00;;;8.10;;
20417;SDS011;10368;51.436;6.774;2023-04-10T03:32:54;9.53;;;8.53;;
20417;SDS011;10368;51.436;6.774;2023-04-10T03:35:21;8.60;;;7.57;;
20417;SDS011;10368;51.436;6.774;2023-04-10T03:37:48;9.20;;;8.20;;
20417;SDS011;10368;51.436;6.774;2023-04-10T03:40:15;9.13;;;8.23;;
20417;SDS011;10368;51.436;6.774;2023-04-10T03:42:41;9.33;;;8.33;;
20417;SDS011;10368;51.436;6.774;2023-04-10T03:45:08;8.77;;;7.87;;
20417;SDS011;10368;51.436;6.774;2023-04-10T03:47:36;9.20;;;8.23;;
20417;SDS011;10368;51.436;6.774;2023-04-10T03:50:03;9.23;;;8.33;;
20417;SDS011;10368;51.436;6.774;2023-04-10T03:52:31;10.13;;;8.07;;
20417;SDS011;10368;51.436;6.774;2023-04-10T03:54:58;8.93;;;8.03;;
20417;SDS011;10368;51.436;6.774;2023-04-10T03:57:24;9.83;;;7.57;;
20417;SDS011;10368;51.436;6.774;2023-04-10T03:59:51;8.63;;;7.07;;
20417;SDS011;10368;51.436;6.774;2023-04-10T04:02:18;10.13;;;8.07;;
20417;SDS011;10368;51.436;6.774;2023-04-10T04:04:45;9.47;;;7.83;;
20417;SDS011;10368;51.436;6.774;2023-04-10T04:07:13;9.47;;;8.47;;
20417;SDS011;10368;51.436;6.774;2023-04-10T04:09:39;8.60;;;7.30;;
20417;SDS011;10368;51.436;6.774;2023-04-10T04:12:06;9.00;;;7.97;;
20417;SDS011;10368;51.436;6.774;2023-04-10T04:14:33;8.83;;;7.47;;
20417;SDS011;10368;51.436;6.774;2023-04-10T04:17:00;8.80;;;7.77;;
20417;SDS011;10368;51.436;6.774;2023-04-10T04:19:28;13.23;;;6.97;;
20417;SDS011;10368;51.436;6.774;2023-04-10T04:21:55;9.83;;;7.70;;
20417;SDS011;10368;51.436;6.774;2023-04-10T04:24:23;8.53;;;7.70;;
20417;SDS011;10368;51.436;6.774;2023-04-10T04:26:50;10.43;;;7.87;;
20417;SDS011;10368;51.436;6.774;2023-04-10T04:29:17;8.93;;;7.90;;
20417;SDS011;10368;51.436;6.774;2023-04-10T04:31:44;8.60;;;7.73;;
20417;SDS011;10368;51.436;6.774;2023-04-10T04:34:12;10.83;;;7.60;;
20417;SDS011;10368;51.436;6.774;2023-04-10T04:36:39;9.63;;;7.17;;
20417;SDS011;10368;51.436;6.774;2023-04-10T04:39:06;9.00;;;7.70;;
20417;SDS011;10368;51.436;6.774;2023-04-10T04:41:33;8.97;;;7.67;;
20417;SDS011;10368;51.436;6.774;2023-04-10T04:44:01;7.43;;;6.73;;
20417;SDS011;10368;51.436;6.774;2023-04-10T04:46:28;7.87;;;7.07;;
20417;SDS011;10368;51.436;6.774;2023-04-10T04:48:56;9.33;;;7.50;;
20417;SDS011;10368;51.436;6.774;2023-04-10T04:51:23;8.47;;;7.07;;
20417;SDS011;10368;51.436;6.774;2023-04-10T04:53:50;8.70;;;7.80;;
20417;SDS011;10368;51.436;6.774;2023-04-10T04:56:18;9.53;;;7.10;;
20417;SDS011;10368;51.436;6.774;2023-04-10T04:58:46;8.50;;;7.60;;
20417;SDS011;10368;51.436;6.774;2023-04-10T05:01:13;8.93;;;7.10;;
20417;SDS011;10368;51.436;6.774;2023-04-10T05:03:41;7.73;;;6.93;;
20417;SDS011;10368;51.436;6.774;2023-04-10T05:06:08;7.40;;;6.70;;
20417;SDS011;10368;51.436;6.774;2023-04-10T05:08:36;8.30;;;7.17;;
20417;SDS011;10368;51.436;6.774;2023-04-10T05:11:03;8.37;;;7.23;;
20417;SDS011;10368;51.436;6.774;2023-04-10T05:13:31;9.27;;;7.50;;
20417;SDS011;10368;51.436;6.774;2023-04-10T05:15:58;8.13;;;6.97;;
20417;SDS011;10368;51.436;6.774;2023-04-10T05:18:26;8.20;;;7.33;;
20417;SDS011;10368;51.436;6.774;2023-04-10T05:20:54;9.10;;;7.87;;
20417;SDS011;10368;51.436;6.774;2023-04-10T05:23:21;7.93;;;7.13;;
20417;SDS011;10368;51.436;6.774;2023-04-10T05:25:48;7.30;;;6.60;;
20417;SDS011;10368;51.436;6.774;2023-04-10T05:28:16;9.63;;;7.43;;
20417;SDS011;10368;51.436;6.774;2023-04-10T05:30:43;8.47;;;7.23;;
20417;SDS011;10368;51.436;6.774;2023-04-10T05:33:10;7.97;;;7.17;;
20417;SDS011;10368;51.436;6.774;2023-04-10T05:35:38;7.97;;;7.17;;
20417;SDS011;10368;51.436;6.774;2023-04-10T05:38:05;8.67;;;7.73;;
20417;SDS011;10368;51.436;6.774;2023-04-10T05:40:32;10.23;;;7.97;;
20417;SDS011;10368;51.436;6.774;2023-04-10T05:43:00;8.30;;;7.40;;
20417;SDS011;10368;51.436;6.774;2023-04-10T05:45:27;8.27;;;7.47;;
20417;SDS011;10368;51.436;6.774;2023-04-10T05:47:55;8.10;;;7.30;;
20417;SDS011;10368;51.436;6.774;2023-04-10T05:50:22;8.17;;;7.30;;
20417;SDS011;10368;51.436;6.774;2023-04-10T05:52:49;8.70;;;7.87;;
20417;SDS011;10368;51.436;6.774;2023-04-10T05:55:17;7.13;;;6.43;;
20417;SDS011;10368;51.436;6.774;2023-04-10T05:57:44;8.97;;;8.07;;
20417;SDS011;10368;51.436;6.774;2023-04-10T06:00:11;8.20;;;7.30;;
20417;SDS011;10368;51.436;6.774;2023-04-10T06:02:40;8.80;;;7.40;;
20417;SDS011;10368;51.436;6.774;2023-04-10T06:05:07;8.53;;;7.23;;
20417;SDS011;10368;51.436;6.774;2023-04-10T06:07:35;8.47;;;7.60;;
20417;SDS011;10368;51.436;6.774;2023-04-10T06:10:02;7.77;;;7.07;;
20417;SDS011;10368;51.436;6.774;2023-04-10T06:12:30;9.20;;;7.43;;
20417;SDS011;10368;51.436;6.774;2023-04-10T06:14:57;8.73;;;7.50;;
20417;SDS011;10368;51.436;6.774;2023-04-10T06:17:24;9.60;;;7.77;;
20417;SDS011;10368;51.436;6.774;2023-04-10T06:19:53;8.30;;;7.40;;
20417;SDS011;10368;51.436;6.774;2023-04-10T06:22:21;8.57;;;7.47;;
20417;SDS011;10368;51.436;6.774;2023-04-10T06:24:49;8.45;;;7.47;;
20417;SDS011;10368;51.436;6.774;2023-04-10T06:27:16;8.50;;;7.33;;
20417;SDS011;10368;51.436;6.774;2023-04-10T06:29:44;7.97;;;6.80;;
20417;SDS011;10368;51.436;6.774;2023-04-10T06:32:11;8.30;;;6.57;;
20417;SDS011;10368;51.436;6.774;2023-04-10T06:34:38;9.20;;;7.50;;
20417;SDS011;10368;51.436;6.774;2023-04-10T06:37:05;7.00;;;6.30;;
20417;SDS011;10368;51.436;6.774;2023-04-10T06:39:33;7.03;;;6.27;;
20417;SDS011;10368;51.436;6.774;2023-04-10T06:42:00;8.13;;;7.32;;
20417;SDS011;10368;51.436;6.774;2023-04-10T06:44:28;9.07;;;8.20;;
20417;SDS011;10368;51.436;6.774;2023-04-10T06:46:55;10.13;;;7.60;;
20417;SDS011;10368;51.436;6.774;2023-04-10T06:49:23;7.80;;;6.77;;
20417;SDS011;10368;51.436;6.774;2023-04-10T06:51:50;8.37;;;6.87;;
20417;SDS011;10368;51.436;6.774;2023-04-10T06:54:17;6.60;;;5.93;;
20417;SDS011;10368;51.436;6.774;2023-04-10T06:56:45;9.73;;;6.97;;
20417;SDS011;10368;51.436;6.774;2023-04-10T06:59:12;7.73;;;6.80;;
20417;SDS011;10368;51.436;6.774;2023-04-10T07:01:39;8.27;;;7.00;;
20417;SDS011;10368;51.436;6.774;2023-04-10T07:04:06;6.80;;;6.10;;
20417;SDS011;10368;51.436;6.774;2023-04-10T07:06:34;6.63;;;6.03;;
20417;SDS011;10368;51.436;6.774;2023-04-10T07:09:01;6.97;;;6.27;;
20417;SDS011;10368;51.436;6.774;2023-04-10T07:11:28;6.97;;;6.27;;
20417;SDS011;10368;51.436;6.774;2023-04-10T07:13:56;6.03;;;5.50;;
20417;SDS011;10368;51.436;6.774;2023-04-10T07:16:24;7.47;;;5.30;;
20417;SDS011;10368;51.436;6.774;2023-04-10T07:18:51;7.37;;;6.20;;
20417;SDS011;10368;51.436;6.774;2023-04-10T07:21:19;7.47;;;6.53;;
20417;SDS011;10368;51.436;6.774;2023-04-10T07:23:46;7.27;;;6.47;;
20417;SDS011;10368;51.436;6.774;2023-04-10T07:26:13;7.90;;;7.10;;
20417;SDS011;10368;51.436;6.774;2023-04-10T07:28:41;6.83;;;6.20;;
20417;SDS011;10368;51.436;6.774;2023-04-10T07:31:09;7.17;;;6.40;;
20417;SDS011;10368;51.436;6.774;2023-04-10T07:33:37;5.97;;;5.37;;
20417;SDS011;10368;51.436;6.774;2023-04-10T07:36:04;6.43;;;5.50;;
20417;SDS011;10368;51.436;6.774;2023-04-10T07:38:32;8.40;;;6.53;;
20417;SDS011;10368;51.436;6.774;2023-04-10T07:40:59;6.40;;;5.80;;
20417;SDS011;10368;51.436;6.774;2023-04-10T07:43:26;7.87;;;6.20;;
20417;SDS011;10368;51.436;6.774;2023-04-10T07:45:54;7.13;;;5.83;;
20417;SDS011;10368;51.436;6.774;2023-04-10T07:48:21;6.70;;;6.00;;
20417;SDS011;10368;51.436;6.774;2023-04-10T07:50:49;6.60;;;5.90;;
20417;SDS011;10368;51.436;6.774;2023-04-10T07:53:16;6.53;;;5.40;;
20417;SDS011;10368;51.436;6.774;2023-04-10T07:55:43;6.13;;;5.53;;
20417;SDS011;10368;51.436;6.774;2023-04-10T07:58:13;5.83;;;5.03;;
20417;SDS011;10368;51.436;6.774;2023-04-10T08:00:41;7.37;;;6.67;;
20417;SDS011;10368;51.436;6.774;2023-04-10T08:03:09;7.27;;;5.73;;
20417;SDS011;10368;51.436;6.774;2023-04-10T08:05:37;6.60;;;5.93;;
20417;SDS011;10368;51.436;6.774;2023-04-10T08:08:04;7.23;;;5.93;;
20417;SDS011;10368;51.436;6.774;2023-04-10T08:10:31;6.07;;;5.20;;
20417;SDS011;10368;51.436;6.774;2023-04-10T08:12:58;6.47;;;5.87;;
20417;SDS011;10368;51.436;6.774;2023-04-10T08:15:25;5.87;;;5.37;;
20417;SDS011;10368;51.436;6.774;2023-04-10T08:17:53;7.17;;;5.33;;
20417;SDS011;10368;51.436;6.774;2023-04-10T08:20:20;4.87;;;4.37;;
20417;SDS011;10368;51.436;6.774;2023-04-10T08:22:47;7.37;;;5.20;;
20417;SDS011;10368;51.436;6.774;2023-04-10T08:25:15;6.80;;;6.17;;
20417;SDS011;10368;51.436;6.774;2023-04-10T08:27:42;5.57;;;5.00;;
20417;SDS011;10368;51.436;6.774;2023-04-10T08:30:09;6.20;;;5.17;;
20417;SDS011;10368;51.436;6.774;2023-04-10T08:32:37;6.27;;;5.67;;
20417;SDS011;10368;51.436;6.774;2023-04-10T08:35:05;7.00;;;5.13;;
20417;SDS011;10368;51.436;6.774;2023-04-10T08:37:32;5.60;;;5.10;;
20417;SDS011;10368;51.436;6.774;2023-04-10T08:39:59;6.43;;;5.37;;
20417;SDS011;10368;51.436;6.774;2023-04-10T08:42:27;5.90;;;5.40;;
20417;SDS011;10368;51.436;6.774;2023-04-10T08:44:54;6.07;;;5.47;;
20417;SDS011;10368;51.436;6.774;2023-04-10T08:47:21;6.40;;;5.33;;
20417;SDS011;10368;51.436;6.774;2023-04-10T08:49:53;6.13;;;4.87;;
20417;SDS011;10368;51.436;6.774;2023-04-10T08:52:26;5.70;;;5.17;;
20417;SDS011;10368;51.436;6.774;2023-04-10T08:54:56;6.47;;;5.00;;
20417;SDS011;10368;51.436;6.774;2023-04-10T08:57:25;5.90;;;5.30;;
20417;SDS011;10368;51.436;6.774;2023-04-10T08:59:53;5.43;;;4.93;;
20417;SDS011;10368;51.436;6.774;2023-04-10T09:02:20;6.47;;;5.87;;
20417;SDS011;10368;51.436;6.774;2023-04-10T09:04:48;5.35;;;4.38;;
20417;SDS011;10368;51.436;6.774;2023-04-10T09:07:17;6.80;;;6.10;;
20417;SDS011;10368;51.436;6.774;2023-04-10T09:09:43;8.93;;;6.03;;
20417;SDS011;10368;51.436;6.774;2023-04-10T09:12:14;7.80;;;4.80;;
20417;SDS011;10368;51.436;6.774;2023-04-10T09:14:41;7.20;;;4.87;;
20417;SDS011;10368;51.436;6.774;2023-04-10T09:17:10;4.97;;;4.53;;
20417;SDS011;10368;51.436;6.774;2023-04-10T09:19:46;5.13;;;4.55;;
20417;SDS011;10368;51.436;6.774;2023-04-10T09:22:15;5.43;;;4.90;;
20417;SDS011;10368;51.436;6.774;2023-04-10T09:24:42;4.67;;;4.23;;
20417;SDS011;10368;51.436;6.774;2023-04-10T09:27:10;4.93;;;4.43;;
20417;SDS011;10368;51.436;6.774;2023-04-10T09:29:54;5.10;;;4.60;;
20417;SDS011;10368;51.436;6.774;2023-04-10T09:35:07;4.78;;;4.38;;
20417;SDS011;10368;51.436;6.774;2023-04-10T09:37:36;5.22;;;4.72;;
20417;SDS011;10368;51.436;6.774;2023-04-10T09:40:03;4.63;;;4.22;;
20417;SDS011;10368;51.436;6.774;2023-04-10T09:42:34;4.32;;;3.92;;
20417;SDS011;10368;51.436;6.774;2023-04-10T09:45:03;4.32;;;4.00;;
20417;SDS011;10368;51.436;6.774;2023-04-10T09:47:30;4.35;;;3.95;;
20417;SDS011;10368;51.436;6.774;2023-04-10T09:49:58;4.82;;;4.38;;
20417;SDS011;10368;51.436;6.774;2023-04-10T09:52:27;4.45;;;4.05;;
20417;SDS011;10368;51.436;6.774;2023-04-10T09:54:56;4.32;;;3.92;;
20417;SDS011;10368;51.436;6.774;2023-04-10T09:57:29;4.05;;;3.65;;
20417;SDS011;10368;51.436;6.774;2023-04-10T09:59:58;5.75;;;4.75;;
20417;SDS011;10368;51.436;6.774;2023-04-10T10:02:29;4.40;;;4.00;;
20417;SDS011;10368;51.436;6.774;2023-04-10T10:04:57;4.15;;;3.78;;
20417;SDS011;10368;51.436;6.774;2023-04-10T10:07:27;4.85;;;4.38;;
20417;SDS011;10368;51.436;6.774;2023-04-10T10:09:56;4.43;;;4.03;;
20417;SDS011;10368;51.436;6.774;2023-04-10T10:15:07;4.70;;;4.30;;
20417;SDS011;10368;51.436;6.774;2023-04-10T10:18:02;4.78;;;4.38;;
20417;SDS011;10368;51.436;6.774;2023-04-10T10:20:30;4.00;;;3.63;;
20417;SDS011;10368;51.436;6.774;2023-04-10T10:23:01;4.43;;;4.03;;
20417;SDS011;10368;51.436;6.774;2023-04-10T10:25:29;5.13;;;3.80;;
20417;SDS011;10368;51.436;6.774;2023-04-10T10:27:57;4.05;;;3.67;;
20417;SDS011;10368;51.436;6.774;2023-04-10T10:30:27;4.40;;;4.03;;
20417;SDS011;10368;51.436;6.774;2023-04-10T10:32:57;4.82;;;4.43;;
20417;SDS011;10368;51.436;6.774;2023-04-10T10:35:26;4.25;;;3.85;;
20417;SDS011;10368;51.436;6.774;2023-04-10T10:37:55;3.95;;;3.55;;
20417;SDS011;10368;51.436;6.774;2023-04-10T10:40:32;5.60;;;4.07;;
20417;SDS011;10368;51.436;6.774;2023-04-10T10:46:19;4.43;;;4.03;;
20417;SDS011;10368;51.436;6.774;2023-04-10T10:48:57;3.55;;;3.25;;
20417;SDS011;10368;51.436;6.774;2023-04-10T10:51:58;5.03;;;4.57;;
20417;SDS011;10368;51.436;6.774;2023-04-10T10:54:35;4.20;;;3.80;;
20417;SDS011;10368;51.436;6.774;2023-04-10T10:58:13;3.70;;;3.40;;
20417;SDS011;10368;51.436;6.774;2023-04-10T11:00:11;4.22;;;3.83;;
20417;SDS011;10368;51.436;6.774;2023-04-10T11:02:39;3.42;;;3.22;;
20417;SDS011;10368;51.436;6.774;2023-04-10T11:05:06;4.90;;;4.30;;
20417;SDS011;10368;51.436;6.774;2023-04-10T11:13:33;4.70;;;3.97;;
20417;SDS011;10368;51.436;6.774;2023-04-10T11:16:03;3.42;;;3.10;;
20417;SDS011;10368;51.436;6.774;2023-04-10T11:29:02;3.60;;;3.30;;
20417;SDS011;10368;51.436;6.774;2023-04-10T11:31:31;4.30;;;3.90;;
20417;SDS011;10368;51.436;6.774;2023-04-10T11:36:29;5.05;;;3.85;;
20417;SDS011;10368;51.436;6.774;2023-04-10T11:39:04;3.72;;;3.35;;
20417;SDS011;10368;51.436;6.774;2023-04-10T11:41:36;3.35;;;3.08;;
20417;SDS011;10368;51.436;6.774;2023-04-10T11:44:04;4.60;;;4.15;;
20417;SDS011;10368;51.436;6.774;2023-04-10T11:46:36;4.65;;;4.25;;
20417;SDS011;10368;51.436;6.774;2023-04-10T11:49:05;5.97;;;3.83;;
20417;SDS011;10368;51.436;6.774;2023-04-10T11:51:33;7.72;;;4.07;;
20417;SDS011;10368;51.436;6.774;2023-04-10T11:54:06;3.38;;;3.08;;
20417;SDS011;10368;51.436;6.774;2023-04-10T11:56:38;4.75;;;4.05;;
20417;SDS011;10368;51.436;6.774;2023-04-10T11:59:06;3.88;;;3.58;;
20417;SDS011;10368;51.436;6.774;2023-04-10T12:01:36;3.72;;;3.42;;
20417;SDS011;10368;51.436;6.774;2023-04-10T12:04:17;4.43;;;4.03;;
20417;SDS011;10368;51.436;6.774;2023-04-10T12:06:52;4.18;;;3.75;;
20417;SDS011;10368;51.436;6.774;2023-04-10T12:09:21;3.53;;;3.22;;
20417;SDS011;10368;51.436;6.774;2023-04-10T12:11:55;2.80;;;2.55;;
20417;SDS011;10368;51.436;6.774;2023-04-10T12:14:35;7.80;;;6.22;;
20417;SDS011;10368;51.436;6.774;2023-04-10T12:17:10;9.18;;;7.80;;
20417;SDS011;10368;51.436;6.774;2023-04-10T12:19:38;3.63;;;3.33;;
20417;SDS011;10368;51.436;6.774;2023-04-10T12:22:05;6.28;;;5.25;;
20417;SDS011;10368;51.436;6.774;2023-04-10T12:24:48;3.40;;;3.10;;
20417;SDS011;10368;51.436;6.774;2023-04-10T12:27:23;3.72;;;3.42;;
20417;SDS011;10368;51.436;6.774;2023-04-10T12:29:55;3.67;;;3.28;;
20417;SDS011;10368;51.436;6.774;2023-04-10T12:32:23;3.85;;;3.55;;
20417;SDS011;10368;51.436;6.774;2023-04-10T12:34:53;3.78;;;3.38;;
20417;SDS011;10368;51.436;6.774;2023-04-10T12:40:20;3.78;;;3.47;;
20417;SDS011;10368;51.436;6.774;2023-04-10T12:42:47;2.97;;;2.67;;
20417;SDS011;10368;51.436;6.774;2023-04-10T12:45:14;3.35;;;3.13;;
20417;SDS011;10368;51.436;6.774;2023-04-10T12:47:42;3.38;;;3.08;;
20417;SDS011;10368;51.436;6.774;2023-04-10T12:50:15;3.15;;;2.85;;
20417;SDS011;10368;51.436;6.774;2023-04-10T12:52:43;3.50;;;3.20;;
20417;SDS011;10368;51.436;6.774;2023-04-10T12:55:14;3.15;;;2.90;;
20417;SDS011;10368;51.436;6.774;2023-04-10T12:57:42;3.10;;;2.90;;
20417;SDS011;10368;51.436;6.774;2023-04-10T13:00:10;2.72;;;2.53;;
20417;SDS011;10368;51.436;6.774;2023-04-10T13:02:38;3.30;;;3.00;;
20417;SDS011;10368;51.436;6.774;2023-04-10T13:05:07;3.67;;;3.38;;
20417;SDS011;10368;51.436;6.774;2023-04-10T13:07:34;3.35;;;3.05;;
20417;SDS011;10368;51.436;6.774;2023-04-10T13:10:02;3.28;;;2.97;;
20417;SDS011;10368;51.436;6.774;2023-04-10T13:12:30;3.17;;;2.90;;
20417;SDS011;10368;51.436;6.774;2023-04-10T13:15:00;3.33;;;3.03;;
20417;SDS011;10368;51.436;6.774;2023-04-10T13:17:27;3.42;;;3.13;;
20417;SDS011;10368;51.436;6.774;2023-04-10T13:19:55;4.57;;;3.00;;
20417;SDS011;10368;51.436;6.774;2023-04-10T13:22:22;4.57;;;4.13;;
20417;SDS011;10368;51.436;6.774;2023-04-10T13:24:49;4.35;;;3.75;;
20417;SDS011;10368;51.436;6.774;2023-04-10T13:27:16;3.35;;;3.05;;
20417;SDS011;10368;51.436;6.774;2023-04-10T13:29:44;3.10;;;2.90;;
20417;SDS011;10368;51.436;6.774;2023-04-10T13:32:12;3.25;;;3.00;;
20417;SDS011;10368;51.436;6.774;2023-04-10T13:34:39;3.05;;;2.75;;
20417;SDS011;10368;51.436;6.774;2023-04-10T13:37:08;3.15;;;2.88;;
20417;SDS011;10368;51.436;6.774;2023-04-10T13:39:37;2.95;;;2.58;;
20417;SDS011;10368;51.436;6.774;2023-04-10T13:42:04;5.05;;;4.43;;
20417;SDS011;10368;51.436;6.774;2023-04-10T13:44:31;3.38;;;3.08;;
20417;SDS011;10368;51.436;6.774;2023-04-10T13:46:58;3.72;;;3.42;;
20417;SDS011;10368;51.436;6.774;2023-04-10T13:49:26;3.15;;;2.90;;
20417;SDS011;10368;51.436;6.774;2023-04-10T13:51:56;2.80;;;2.60;;
20417;SDS011;10368;51.436;6.774;2023-04-10T13:54:23;2.85;;;2.58;;
20417;SDS011;10368;51.436;6.774;2023-04-10T13:56:51;5.07;;;4.63;;
20417;SDS011;10368;51.436;6.774;2023-04-10T13:59:19;7.00;;;6.35;;
20417;SDS011;10368;51.436;6.774;2023-04-10T14:01:47;3.33;;;3.03;;
20417;SDS011;10368;51.436;6.774;2023-04-10T14:04:17;2.80;;;2.60;;
20417;SDS011;10368;51.436;6.774;2023-04-10T14:06:45;2.70;;;2.50;;
20417;SDS011;10368;51.436;6.774;2023-04-10T14:09:13;3.10;;;2.85;;
20417;SDS011;10368;51.436;6.774;2023-04-10T14:11:40;3.10;;;2.85;;
20417;SDS011;10368;51.436;6.774;2023-04-10T14:14:08;2.90;;;2.70;;
20417;SDS011;10368;51.436;6.774;2023-04-10T14:16:35;2.90;;;2.65;;
20417;SDS011;10368;51.436;6.774;2023-04-10T14:19:02;3.00;;;2.70;;
20417;SDS011;10368;51.436;6.774;2023-04-10T14:21:29;2.80;;;2.60;;
20417;SDS011;10368;51.436;6.774;2023-04-10T14:23:57;2.67;;;2.20;;
20417;SDS011;10368;51.436;6.774;2023-04-10T14:26:25;3.40;;;2.40;;
20417;SDS011;10368;51.436;6.774;2023-04-10T14:28:52;2.35;;;2.15;;
20417;SDS011;10368;51.436;6.774;2023-04-10T14:31:20;2.88;;;2.67;;
20417;SDS011;10368;51.436;6.774;2023-04-10T14:33:47;2.22;;;2.05;;
20417;SDS011;10368;51.436;6.774;2023-04-10T14:36:14;2.58;;;2.15;;
20417;SDS011;10368;51.436;6.774;2023-04-10T14:38:42;3.75;;;2.33;;
20417;SDS011;10368;51.436;6.774;2023-04-10T14:41:09;2.22;;;2.03;;
20417;SDS011;10368;51.436;6.774;2023-04-10T14:43:36;2.28;;;2.00;;
20417;SDS011;10368;51.436;6.774;2023-04-10T14:46:04;2.45;;;2.25;;
20417;SDS011;10368;51.436;6.774;2023-04-10T14:48:31;2.05;;;1.95;;
20417;SDS011;10368;51.436;6.774;2023-04-10T14:50:58;2.60;;;2.40;;
20417;SDS011;10368;51.436;6.774;2023-04-10T14:53:26;2.47;;;2.28;;
20417;SDS011;10368;51.436;6.774;2023-04-10T14:55:53;2.88;;;2.45;;
20417;SDS011;10368;51.436;6.774;2023-04-10T14:58:20;2.70;;;2.50;;
20417;SDS011;10368;51.436;6.774;2023-04-10T15:00:48;2.58;;;2.20;;
20417;SDS011;10368;51.436;6.774;2023-04-10T15:03:16;2.55;;;2.35;;
20417;SDS011;10368;51.436;6.774;2023-04-10T15:05:43;2.15;;;2.00;;
20417;SDS011;10368;51.436;6.774;2023-04-10T15:08:10;2.78;;;2.53;;
20417;SDS011;10368;51.436;6.774;2023-04-10T15:10:38;2.50;;;2.25;;
20417;SDS011;10368;51.436;6.774;2023-04-10T15:13:05;2.78;;;2.45;;
20417;SDS011;10368;51.436;6.774;2023-04-10T15:15:32;2.28;;;2.08;;
20417;SDS011;10368;51.436;6.774;2023-04-10T15:17:59;2.60;;;2.40;;
20417;SDS011;10368;51.436;6.774;2023-04-10T15:20:26;2.75;;;2.55;;
20417;SDS011;10368;51.436;6.774;2023-04-10T15:22:54;2.40;;;2.20;;
20417;SDS011;10368;51.436;6.774;2023-04-10T15:25:21;2.92;;;2.70;;
20417;SDS011;10368;51.436;6.774;2023-04-10T15:27:48;2.75;;;2.50;;
20417;SDS011;10368;51.436;6.774;2023-04-10T15:30:15;2.88;;;2.20;;
20417;SDS011;10368;51.436;6.774;2023-04-10T15:32:42;2.92;;;2.20;;
20417;SDS011;10368;51.436;6.774;2023-04-10T15:35:10;2.50;;;2.30;;
20417;SDS011;10368;51.436;6.774;2023-04-10T15:37:37;3.03;;;2.47;;
20417;SDS011;10368;51.436;6.774;2023-04-10T15:40:04;4.43;;;2.60;;
20417;SDS011;10368;51.436;6.774;2023-04-10T15:42:33;2.40;;;2.20;;
20417;SDS011;10368;51.436;6.774;2023-04-10T15:45:00;2.95;;;1.95;;